sensor_id;sensor_type;location;lat;lon;timestamp;P1;durP1;ratioP1;P2;durP2;ratioP2
4696;SDS011;2362;50.780;0.292;2022-12-20T00:01:54;86.05;;;11.40;;
4696;SDS011;2362;50.780;0.292;2022-12-20T00:04:20;113.20;;;14.07;;
4696;SDS011;2362;50.780;0.292;2022-12-20T00:06:46;84.18;;;11.27;;
4696;SDS011;2362;50.780;0.292;2022-12-20T00:09:12;93.88;;;12.23;;
4696;SDS011;2362;50.780;0.292;2022-12-20T00:11:38;100.88;;;14.20;;
4696;SDS011;2362;50.780;0.292;2022-12-20T00:14:05;108.32;;;15.35;;
4696;SDS011;2362;50.780;0.292;2022-12-20T00:16:32;87.03;;;13.13;;
4696;SDS011;2362;50.780;0.292;2022-12-20T00:19:01;90.97;;;12.38;;
4696;SDS011;2362;50.780;0.292;2022-12-20T00:21:53;100.03;;;12.23;;
4696;SDS011;2362;50.780;0.292;2022-12-20T00:24:44;88.05;;;10.80;;
4696;SDS011;2362;50.780;0.292;2022-12-20T00:27:10;79.45;;;11.50;;
4696;SDS011;2362;50.780;0.292;2022-12-20T00:29:36;75.65;;;11.45;;
4696;SDS011;2362;50.780;0.292;2022-12-20T00:32:02;96.72;;;11.85;;
4696;SDS011;2362;50.780;0.292;2022-12-20T00:34:27;67.75;;;10.55;;
4696;SDS011;2362;50.780;0.292;2022-12-20T00:36:53;71.00;;;11.35;;
4696;SDS011;2362;50.780;0.292;2022-12-20T00:39:19;70.55;;;10.73;;
4696;SDS011;2362;50.780;0.292;2022-12-20T00:41:44;76.78;;;11.18;;
4696;SDS011;2362;50.780;0.292;2022-12-20T00:44:10;79.05;;;10.90;;
4696;SDS011;2362;50.780;0.292;2022-12-20T00:46:36;81.35;;;11.73;;
4696;SDS011;2362;50.780;0.292;2022-12-20T00:49:02;79.78;;;11.63;;
4696;SDS011;2362;50.780;0.292;2022-12-20T00:51:28;91.32;;;12.25;;
4696;SDS011;2362;50.780;0.292;2022-12-20T00:53:56;71.03;;;11.95;;
4696;SDS011;2362;50.780;0.292;2022-12-20T00:56:22;76.80;;;11.20;;
4696;SDS011;2362;50.780;0.292;2022-12-20T00:58:48;78.07;;;11.30;;
4696;SDS011;2362;50.780;0.292;2022-12-20T01:01:16;67.03;;;10.13;;
4696;SDS011;2362;50.780;0.292;2022-12-20T01:03:45;73.95;;;10.95;;
4696;SDS011;2362;50.780;0.292;2022-12-20T01:06:11;88.15;;;11.50;;
4696;SDS011;2362;50.780;0.292;2022-12-20T01:08:36;76.40;;;11.02;;
4696;SDS011;2362;50.780;0.292;2022-12-20T01:11:04;74.97;;;12.32;;
4696;SDS011;2362;50.780;0.292;2022-12-20T01:13:36;80.25;;;10.15;;
4696;SDS011;2362;50.780;0.292;2022-12-20T01:16:05;82.88;;;12.57;;
4696;SDS011;2362;50.780;0.292;2022-12-20T01:18:33;75.97;;;11.63;;
4696;SDS011;2362;50.780;0.292;2022-12-20T01:20:59;75.22;;;11.27;;
4696;SDS011;2362;50.780;0.292;2022-12-20T01:23:30;79.65;;;13.75;;
4696;SDS011;2362;50.780;0.292;2022-12-20T01:25:59;80.22;;;11.85;;
4696;SDS011;2362;50.780;0.292;2022-12-20T01:28:26;72.63;;;12.80;;
4696;SDS011;2362;50.780;0.292;2022-12-20T01:30:52;75.45;;;11.43;;
4696;SDS011;2362;50.780;0.292;2022-12-20T01:33:18;62.67;;;10.23;;
4696;SDS011;2362;50.780;0.292;2022-12-20T01:35:54;61.35;;;12.95;;
4696;SDS011;2362;50.780;0.292;2022-12-20T01:38:24;94.18;;;12.20;;
4696;SDS011;2362;50.780;0.292;2022-12-20T01:40:50;69.28;;;9.77;;
4696;SDS011;2362;50.780;0.292;2022-12-20T01:43:17;78.68;;;10.65;;
4696;SDS011;2362;50.780;0.292;2022-12-20T01:45:43;76.43;;;12.68;;
4696;SDS011;2362;50.780;0.292;2022-12-20T01:48:11;84.45;;;11.43;;
4696;SDS011;2362;50.780;0.292;2022-12-20T01:50:46;95.03;;;10.93;;
4696;SDS011;2362;50.780;0.292;2022-12-20T01:53:14;77.07;;;11.52;;
4696;SDS011;2362;50.780;0.292;2022-12-20T01:55:43;56.38;;;8.85;;
4696;SDS011;2362;50.780;0.292;2022-12-20T01:58:11;64.22;;;10.07;;
4696;SDS011;2362;50.780;0.292;2022-12-20T02:00:38;68.50;;;10.15;;
4696;SDS011;2362;50.780;0.292;2022-12-20T02:03:08;71.35;;;9.93;;
4696;SDS011;2362;50.780;0.292;2022-12-20T02:05:39;65.57;;;9.85;;
4696;SDS011;2362;50.780;0.292;2022-12-20T02:08:09;65.00;;;9.90;;
4696;SDS011;2362;50.780;0.292;2022-12-20T02:13:45;71.40;;;11.23;;
4696;SDS011;2362;50.780;0.292;2022-12-20T02:16:22;86.25;;;11.05;;
4696;SDS011;2362;50.780;0.292;2022-12-20T02:18:56;85.50;;;11.25;;
4696;SDS011;2362;50.780;0.292;2022-12-20T02:21:38;61.22;;;10.73;;
4696;SDS011;2362;50.780;0.292;2022-12-20T02:24:30;63.17;;;9.10;;
4696;SDS011;2362;50.780;0.292;2022-12-20T02:27:20;65.10;;;8.82;;
4696;SDS011;2362;50.780;0.292;2022-12-20T02:30:16;60.95;;;8.50;;
4696;SDS011;2362;50.780;0.292;2022-12-20T02:35:26;70.75;;;10.18;;
4696;SDS011;2362;50.780;0.292;2022-12-20T02:37:55;65.47;;;9.68;;
4696;SDS011;2362;50.780;0.292;2022-12-20T02:40:24;78.93;;;11.02;;
4696;SDS011;2362;50.780;0.292;2022-12-20T02:43:00;65.25;;;10.15;;
4696;SDS011;2362;50.780;0.292;2022-12-20T02:45:49;78.03;;;11.48;;
4696;SDS011;2362;50.780;0.292;2022-12-20T02:48:15;81.00;;;10.80;;
4696;SDS011;2362;50.780;0.292;2022-12-20T02:50:44;77.32;;;12.27;;
4696;SDS011;2362;50.780;0.292;2022-12-20T02:53:13;62.60;;;11.50;;
4696;SDS011;2362;50.780;0.292;2022-12-20T02:55:42;89.28;;;10.52;;
4696;SDS011;2362;50.780;0.292;2022-12-20T02:58:17;69.93;;;10.93;;
4696;SDS011;2362;50.780;0.292;2022-12-20T03:00:49;68.35;;;10.30;;
4696;SDS011;2362;50.780;0.292;2022-12-20T03:03:15;70.60;;;12.20;;
4696;SDS011;2362;50.780;0.292;2022-12-20T03:05:47;66.60;;;11.30;;
4696;SDS011;2362;50.780;0.292;2022-12-20T03:08:15;78.65;;;14.55;;
4696;SDS011;2362;50.780;0.292;2022-12-20T03:10:41;78.53;;;12.88;;
4696;SDS011;2362;50.780;0.292;2022-12-20T03:13:08;82.50;;;13.43;;
4696;SDS011;2362;50.780;0.292;2022-12-20T03:15:34;84.32;;;12.48;;
4696;SDS011;2362;50.780;0.292;2022-12-20T03:18:24;74.57;;;12.00;;
4696;SDS011;2362;50.780;0.292;2022-12-20T03:20:50;69.43;;;11.48;;
4696;SDS011;2362;50.780;0.292;2022-12-20T03:23:16;89.15;;;13.07;;
4696;SDS011;2362;50.780;0.292;2022-12-20T03:25:41;86.40;;;12.32;;
4696;SDS011;2362;50.780;0.292;2022-12-20T03:28:07;89.32;;;13.13;;
4696;SDS011;2362;50.780;0.292;2022-12-20T03:30:33;80.47;;;12.90;;
4696;SDS011;2362;50.780;0.292;2022-12-20T03:32:58;69.28;;;12.43;;
4696;SDS011;2362;50.780;0.292;2022-12-20T03:35:25;64.47;;;10.93;;
4696;SDS011;2362;50.780;0.292;2022-12-20T03:37:51;71.72;;;11.35;;
4696;SDS011;2362;50.780;0.292;2022-12-20T03:40:17;81.40;;;11.93;;
4696;SDS011;2362;50.780;0.292;2022-12-20T03:42:43;64.35;;;10.35;;
4696;SDS011;2362;50.780;0.292;2022-12-20T03:45:09;65.88;;;11.60;;
4696;SDS011;2362;50.780;0.292;2022-12-20T03:47:35;65.97;;;10.82;;
4696;SDS011;2362;50.780;0.292;2022-12-20T03:50:25;75.60;;;10.57;;
4696;SDS011;2362;50.780;0.292;2022-12-20T03:52:51;78.55;;;11.40;;
4696;SDS011;2362;50.780;0.292;2022-12-20T03:55:17;89.75;;;11.93;;
4696;SDS011;2362;50.780;0.292;2022-12-20T03:57:42;66.53;;;13.55;;
4696;SDS011;2362;50.780;0.292;2022-12-20T04:00:08;69.15;;;11.57;;
4696;SDS011;2362;50.780;0.292;2022-12-20T04:02:36;71.97;;;12.13;;
4696;SDS011;2362;50.780;0.292;2022-12-20T04:05:02;66.57;;;12.10;;
4696;SDS011;2362;50.780;0.292;2022-12-20T04:07:28;71.97;;;11.80;;
4696;SDS011;2362;50.780;0.292;2022-12-20T04:09:53;72.30;;;10.90;;
4696;SDS011;2362;50.780;0.292;2022-12-20T04:12:19;81.78;;;12.52;;
4696;SDS011;2362;50.780;0.292;2022-12-20T04:14:45;90.15;;;12.02;;
4696;SDS011;2362;50.780;0.292;2022-12-20T04:17:10;84.85;;;12.88;;
4696;SDS011;2362;50.780;0.292;2022-12-20T04:19:36;77.78;;;12.88;;
4696;SDS011;2362;50.780;0.292;2022-12-20T04:22:01;66.82;;;11.00;;
4696;SDS011;2362;50.780;0.292;2022-12-20T04:24:27;98.38;;;13.60;;
4696;SDS011;2362;50.780;0.292;2022-12-20T04:26:53;66.95;;;12.70;;
4696;SDS011;2362;50.780;0.292;2022-12-20T04:29:19;75.60;;;12.60;;
4696;SDS011;2362;50.780;0.292;2022-12-20T04:31:44;85.32;;;12.73;;
4696;SDS011;2362;50.780;0.292;2022-12-20T04:34:10;89.30;;;11.55;;
4696;SDS011;2362;50.780;0.292;2022-12-20T04:36:36;80.38;;;11.35;;
4696;SDS011;2362;50.780;0.292;2022-12-20T04:39:01;89.13;;;13.25;;
4696;SDS011;2362;50.780;0.292;2022-12-20T04:41:27;82.00;;;13.70;;
4696;SDS011;2362;50.780;0.292;2022-12-20T04:43:54;62.38;;;10.63;;
4696;SDS011;2362;50.780;0.292;2022-12-20T04:46:21;67.15;;;9.93;;
4696;SDS011;2362;50.780;0.292;2022-12-20T04:48:47;60.38;;;12.30;;
4696;SDS011;2362;50.780;0.292;2022-12-20T04:51:14;74.72;;;10.13;;
4696;SDS011;2362;50.780;0.292;2022-12-20T04:53:40;69.60;;;12.13;;
4696;SDS011;2362;50.780;0.292;2022-12-20T04:56:13;78.43;;;10.23;;
4696;SDS011;2362;50.780;0.292;2022-12-20T04:58:39;65.97;;;11.98;;
4696;SDS011;2362;50.780;0.292;2022-12-20T05:01:04;74.05;;;11.05;;
4696;SDS011;2362;50.780;0.292;2022-12-20T05:03:30;80.82;;;12.77;;
4696;SDS011;2362;50.780;0.292;2022-12-20T05:05:56;74.88;;;11.70;;
4696;SDS011;2362;50.780;0.292;2022-12-20T05:08:22;85.50;;;11.75;;
4696;SDS011;2362;50.780;0.292;2022-12-20T05:10:48;71.50;;;12.13;;
4696;SDS011;2362;50.780;0.292;2022-12-20T05:13:14;68.32;;;11.43;;
4696;SDS011;2362;50.780;0.292;2022-12-20T05:15:40;74.85;;;11.05;;
4696;SDS011;2362;50.780;0.292;2022-12-20T05:18:06;66.28;;;11.05;;
4696;SDS011;2362;50.780;0.292;2022-12-20T05:20:32;71.28;;;11.02;;
4696;SDS011;2362;50.780;0.292;2022-12-20T05:22:58;82.90;;;12.40;;
4696;SDS011;2362;50.780;0.292;2022-12-20T05:25:43;66.85;;;10.45;;
4696;SDS011;2362;50.780;0.292;2022-12-20T05:28:34;85.63;;;12.43;;
4696;SDS011;2362;50.780;0.292;2022-12-20T05:31:00;72.30;;;12.32;;
4696;SDS011;2362;50.780;0.292;2022-12-20T05:33:51;73.32;;;11.00;;
4696;SDS011;2362;50.780;0.292;2022-12-20T05:36:18;68.97;;;12.38;;
4696;SDS011;2362;50.780;0.292;2022-12-20T05:38:44;79.85;;;11.90;;
4696;SDS011;2362;50.780;0.292;2022-12-20T05:41:10;73.55;;;11.52;;
4696;SDS011;2362;50.780;0.292;2022-12-20T05:43:35;73.88;;;14.73;;
4696;SDS011;2362;50.780;0.292;2022-12-20T05:46:01;70.65;;;10.52;;
4696;SDS011;2362;50.780;0.292;2022-12-20T05:48:27;80.70;;;12.45;;
4696;SDS011;2362;50.780;0.292;2022-12-20T05:50:53;72.00;;;11.52;;
4696;SDS011;2362;50.780;0.292;2022-12-20T05:53:18;72.07;;;10.70;;
4696;SDS011;2362;50.780;0.292;2022-12-20T05:55:46;76.72;;;11.35;;
4696;SDS011;2362;50.780;0.292;2022-12-20T05:58:14;64.30;;;12.10;;
4696;SDS011;2362;50.780;0.292;2022-12-20T06:00:40;71.32;;;11.43;;
4696;SDS011;2362;50.780;0.292;2022-12-20T06:03:07;68.43;;;12.00;;
4696;SDS011;2362;50.780;0.292;2022-12-20T06:05:35;74.53;;;12.75;;
4696;SDS011;2362;50.780;0.292;2022-12-20T06:08:27;72.28;;;10.35;;
4696;SDS011;2362;50.780;0.292;2022-12-20T06:10:53;95.45;;;12.80;;
4696;SDS011;2362;50.780;0.292;2022-12-20T06:13:18;78.85;;;11.70;;
4696;SDS011;2362;50.780;0.292;2022-12-20T06:15:45;67.15;;;11.40;;
4696;SDS011;2362;50.780;0.292;2022-12-20T06:18:10;80.20;;;10.25;;
4696;SDS011;2362;50.780;0.292;2022-12-20T06:20:36;45.97;;;9.68;;
4696;SDS011;2362;50.780;0.292;2022-12-20T06:23:03;66.25;;;11.25;;
4696;SDS011;2362;50.780;0.292;2022-12-20T06:25:29;68.93;;;10.75;;
4696;SDS011;2362;50.780;0.292;2022-12-20T06:27:55;54.63;;;10.07;;
4696;SDS011;2362;50.780;0.292;2022-12-20T06:30:21;81.30;;;11.38;;
4696;SDS011;2362;50.780;0.292;2022-12-20T06:32:47;66.57;;;10.75;;
4696;SDS011;2362;50.780;0.292;2022-12-20T06:35:13;66.80;;;9.48;;
4696;SDS011;2362;50.780;0.292;2022-12-20T06:37:39;52.90;;;9.43;;
4696;SDS011;2362;50.780;0.292;2022-12-20T06:40:06;51.35;;;9.02;;
4696;SDS011;2362;50.780;0.292;2022-12-20T06:42:34;58.58;;;8.13;;
4696;SDS011;2362;50.780;0.292;2022-12-20T06:45:00;51.65;;;10.40;;
4696;SDS011;2362;50.780;0.292;2022-12-20T06:47:25;41.85;;;8.13;;
4696;SDS011;2362;50.780;0.292;2022-12-20T06:49:51;63.42;;;8.90;;
4696;SDS011;2362;50.780;0.292;2022-12-20T06:52:16;59.65;;;9.93;;
4696;SDS011;2362;50.780;0.292;2022-12-20T06:54:42;66.95;;;10.90;;
4696;SDS011;2362;50.780;0.292;2022-12-20T06:57:08;53.85;;;10.82;;
4696;SDS011;2362;50.780;0.292;2022-12-20T06:59:34;70.60;;;9.85;;
4696;SDS011;2362;50.780;0.292;2022-12-20T07:02:00;63.20;;;12.07;;
4696;SDS011;2362;50.780;0.292;2022-12-20T07:04:25;57.55;;;10.15;;
4696;SDS011;2362;50.780;0.292;2022-12-20T07:06:51;51.35;;;9.10;;
4696;SDS011;2362;50.780;0.292;2022-12-20T07:09:17;53.22;;;9.75;;
4696;SDS011;2362;50.780;0.292;2022-12-20T07:11:43;49.22;;;9.68;;
4696;SDS011;2362;50.780;0.292;2022-12-20T07:14:09;58.97;;;9.73;;
4696;SDS011;2362;50.780;0.292;2022-12-20T07:16:35;57.38;;;9.93;;
4696;SDS011;2362;50.780;0.292;2022-12-20T07:19:01;51.20;;;9.50;;
4696;SDS011;2362;50.780;0.292;2022-12-20T07:21:27;44.45;;;8.45;;
4696;SDS011;2362;50.780;0.292;2022-12-20T07:23:53;59.10;;;8.80;;
4696;SDS011;2362;50.780;0.292;2022-12-20T07:26:20;46.83;;;7.88;;
4696;SDS011;2362;50.780;0.292;2022-12-20T07:28:46;50.25;;;9.45;;
4696;SDS011;2362;50.780;0.292;2022-12-20T07:31:11;43.83;;;8.20;;
4696;SDS011;2362;50.780;0.292;2022-12-20T07:33:37;52.17;;;9.10;;
4696;SDS011;2362;50.780;0.292;2022-12-20T07:36:09;52.70;;;8.20;;
4696;SDS011;2362;50.780;0.292;2022-12-20T07:38:36;48.85;;;8.38;;
4696;SDS011;2362;50.780;0.292;2022-12-20T07:41:08;55.25;;;8.95;;
4696;SDS011;2362;50.780;0.292;2022-12-20T07:43:42;60.05;;;10.30;;
4696;SDS011;2362;50.780;0.292;2022-12-20T07:46:08;49.53;;;8.10;;
4696;SDS011;2362;50.780;0.292;2022-12-20T07:48:36;76.40;;;9.68;;
4696;SDS011;2362;50.780;0.292;2022-12-20T07:51:05;57.22;;;8.50;;
4696;SDS011;2362;50.780;0.292;2022-12-20T07:53:39;62.20;;;7.85;;
4696;SDS011;2362;50.780;0.292;2022-12-20T07:56:11;57.63;;;6.95;;
4696;SDS011;2362;50.780;0.292;2022-12-20T07:58:38;52.10;;;6.50;;
4696;SDS011;2362;50.780;0.292;2022-12-20T08:01:06;61.85;;;7.10;;
4696;SDS011;2362;50.780;0.292;2022-12-20T08:03:45;41.38;;;5.35;;
4696;SDS011;2362;50.780;0.292;2022-12-20T08:06:14;43.38;;;4.95;;
4696;SDS011;2362;50.780;0.292;2022-12-20T08:08:42;29.67;;;5.05;;
4696;SDS011;2362;50.780;0.292;2022-12-20T08:11:11;56.75;;;5.28;;
4696;SDS011;2362;50.780;0.292;2022-12-20T08:13:41;38.13;;;5.40;;
4696;SDS011;2362;50.780;0.292;2022-12-20T08:16:08;53.72;;;5.22;;
4696;SDS011;2362;50.780;0.292;2022-12-20T08:18:34;58.38;;;7.55;;
4696;SDS011;2362;50.780;0.292;2022-12-20T08:21:00;41.45;;;5.60;;
4696;SDS011;2362;50.780;0.292;2022-12-20T08:23:26;55.58;;;5.63;;
4696;SDS011;2362;50.780;0.292;2022-12-20T08:25:51;54.75;;;6.75;;
4696;SDS011;2362;50.780;0.292;2022-12-20T08:28:17;60.70;;;5.95;;
4696;SDS011;2362;50.780;0.292;2022-12-20T08:30:42;66.82;;;6.25;;
4696;SDS011;2362;50.780;0.292;2022-12-20T08:33:08;57.78;;;6.10;;
4696;SDS011;2362;50.780;0.292;2022-12-20T08:35:34;78.63;;;7.03;;
4696;SDS011;2362;50.780;0.292;2022-12-20T08:38:00;68.90;;;5.65;;
4696;SDS011;2362;50.780;0.292;2022-12-20T08:40:26;59.58;;;5.93;;
4696;SDS011;2362;50.780;0.292;2022-12-20T08:42:51;46.90;;;4.55;;
4696;SDS011;2362;50.780;0.292;2022-12-20T08:45:17;52.65;;;6.45;;
4696;SDS011;2362;50.780;0.292;2022-12-20T08:47:44;49.80;;;6.65;;
4696;SDS011;2362;50.780;0.292;2022-12-20T08:50:10;54.88;;;6.18;;
4696;SDS011;2362;50.780;0.292;2022-12-20T08:52:35;53.63;;;6.28;;
4696;SDS011;2362;50.780;0.292;2022-12-20T08:55:01;50.08;;;6.07;;
4696;SDS011;2362;50.780;0.292;2022-12-20T08:57:27;51.17;;;6.60;;
4696;SDS011;2362;50.780;0.292;2022-12-20T08:59:53;46.05;;;5.68;;
4696;SDS011;2362;50.780;0.292;2022-12-20T09:02:18;44.00;;;5.07;;
4696;SDS011;2362;50.780;0.292;2022-12-20T09:04:44;46.03;;;6.05;;
4696;SDS011;2362;50.780;0.292;2022-12-20T09:07:10;36.70;;;5.28;;
4696;SDS011;2362;50.780;0.292;2022-12-20T09:09:36;27.60;;;3.03;;
4696;SDS011;2362;50.780;0.292;2022-12-20T09:12:01;20.23;;;2.25;;
4696;SDS011;2362;50.780;0.292;2022-12-20T09:14:27;23.75;;;2.85;;
4696;SDS011;2362;50.780;0.292;2022-12-20T09:16:54;29.02;;;2.15;;
4696;SDS011;2362;50.780;0.292;2022-12-20T09:19:20;18.85;;;2.63;;
4696;SDS011;2362;50.780;0.292;2022-12-20T09:21:45;15.38;;;2.60;;
4696;SDS011;2362;50.780;0.292;2022-12-20T09:24:12;27.77;;;2.33;;
4696;SDS011;2362;50.780;0.292;2022-12-20T09:26:38;26.95;;;3.47;;
4696;SDS011;2362;50.780;0.292;2022-12-20T09:29:04;37.28;;;4.70;;
4696;SDS011;2362;50.780;0.292;2022-12-20T09:31:30;27.23;;;5.13;;
4696;SDS011;2362;50.780;0.292;2022-12-20T09:33:57;27.60;;;3.25;;
4696;SDS011;2362;50.780;0.292;2022-12-20T09:36:24;26.27;;;3.05;;
4696;SDS011;2362;50.780;0.292;2022-12-20T09:38:50;20.25;;;3.85;;
4696;SDS011;2362;50.780;0.292;2022-12-20T09:43:59;14.60;;;3.42;;
4696;SDS011;2362;50.780;0.292;2022-12-20T09:46:28;26.98;;;3.42;;
4696;SDS011;2362;50.780;0.292;2022-12-20T09:48:54;21.17;;;2.70;;
4696;SDS011;2362;50.780;0.292;2022-12-20T09:54:21;27.38;;;2.47;;
4696;SDS011;2362;50.780;0.292;2022-12-20T09:56:57;34.78;;;3.90;;
4696;SDS011;2362;50.780;0.292;2022-12-20T09:59:32;20.60;;;3.08;;
4696;SDS011;2362;50.780;0.292;2022-12-20T10:01:59;24.75;;;3.30;;
4696;SDS011;2362;50.780;0.292;2022-12-20T10:04:26;38.60;;;3.47;;
4696;SDS011;2362;50.780;0.292;2022-12-20T10:12:46;30.38;;;2.85;;
4696;SDS011;2362;50.780;0.292;2022-12-20T10:23:58;26.95;;;2.67;;
4696;SDS011;2362;50.780;0.292;2022-12-20T10:26:32;42.25;;;4.40;;
4696;SDS011;2362;50.780;0.292;2022-12-20T10:28:58;33.00;;;3.75;;
4696;SDS011;2362;50.780;0.292;2022-12-20T10:31:24;26.80;;;3.10;;
4696;SDS011;2362;50.780;0.292;2022-12-20T10:33:49;25.42;;;3.28;;
4696;SDS011;2362;50.780;0.292;2022-12-20T10:38:58;37.47;;;4.60;;
4696;SDS011;2362;50.780;0.292;2022-12-20T10:41:27;33.35;;;4.93;;
4696;SDS011;2362;50.780;0.292;2022-12-20T10:47:19;27.08;;;3.47;;
4696;SDS011;2362;50.780;0.292;2022-12-20T10:50:07;28.85;;;3.08;;
4696;SDS011;2362;50.780;0.292;2022-12-20T10:52:42;19.17;;;2.53;;
4696;SDS011;2362;50.780;0.292;2022-12-20T10:58:21;25.20;;;3.17;;
4696;SDS011;2362;50.780;0.292;2022-12-20T11:01:10;26.90;;;3.17;;
4696;SDS011;2362;50.780;0.292;2022-12-20T11:04:23;28.92;;;3.83;;
4696;SDS011;2362;50.780;0.292;2022-12-20T11:11:59;27.05;;;3.08;;
4696;SDS011;2362;50.780;0.292;2022-12-20T11:19:41;34.85;;;3.10;;
4696;SDS011;2362;50.780;0.292;2022-12-20T11:30:03;29.73;;;3.22;;
4696;SDS011;2362;50.780;0.292;2022-12-20T11:32:33;23.20;;;3.33;;
4696;SDS011;2362;50.780;0.292;2022-12-20T11:41:15;34.33;;;4.15;;
4696;SDS011;2362;50.780;0.292;2022-12-20T11:43:50;23.52;;;3.83;;
4696;SDS011;2362;50.780;0.292;2022-12-20T11:55:38;22.30;;;2.58;;
4696;SDS011;2362;50.780;0.292;2022-12-20T12:00:26;36.72;;;3.17;;
4696;SDS011;2362;50.780;0.292;2022-12-20T12:05:55;22.33;;;3.38;;
4696;SDS011;2362;50.780;0.292;2022-12-20T12:13:48;34.42;;;3.17;;
4696;SDS011;2362;50.780;0.292;2022-12-20T12:16:16;29.70;;;3.85;;
4696;SDS011;2362;50.780;0.292;2022-12-20T12:18:46;23.05;;;3.08;;
4696;SDS011;2362;50.780;0.292;2022-12-20T12:21:23;30.33;;;3.53;;
4696;SDS011;2362;50.780;0.292;2022-12-20T12:26:24;32.13;;;4.78;;
4696;SDS011;2362;50.780;0.292;2022-12-20T12:39:49;31.70;;;4.20;;
4696;SDS011;2362;50.780;0.292;2022-12-20T12:45:28;26.48;;;3.97;;
4696;SDS011;2362;50.780;0.292;2022-12-20T12:50:29;31.23;;;4.32;;
4696;SDS011;2362;50.780;0.292;2022-12-20T12:53:04;24.73;;;2.88;;
4696;SDS011;2362;50.780;0.292;2022-12-20T12:55:37;33.67;;;3.70;;
4696;SDS011;2362;50.780;0.292;2022-12-20T12:58:12;37.13;;;3.85;;
4696;SDS011;2362;50.780;0.292;2022-12-20T13:11:29;21.00;;;3.15;;
4696;SDS011;2362;50.780;0.292;2022-12-20T13:16:48;31.38;;;3.20;;
4696;SDS011;2362;50.780;0.292;2022-12-20T13:19:37;22.40;;;3.63;;
4696;SDS011;2362;50.780;0.292;2022-12-20T13:24:47;30.35;;;3.97;;
4696;SDS011;2362;50.780;0.292;2022-12-20T13:27:21;32.22;;;3.80;;
4696;SDS011;2362;50.780;0.292;2022-12-20T13:45:46;27.48;;;4.53;;
4696;SDS011;2362;50.780;0.292;2022-12-20T13:48:17;28.15;;;4.88;;
4696;SDS011;2362;50.780;0.292;2022-12-20T13:50:50;45.53;;;5.93;;
4696;SDS011;2362;50.780;0.292;2022-12-20T13:53:25;33.47;;;3.72;;
4696;SDS011;2362;50.780;0.292;2022-12-20T13:55:51;34.58;;;3.63;;
4696;SDS011;2362;50.780;0.292;2022-12-20T14:00:51;26.70;;;3.80;;
4696;SDS011;2362;50.780;0.292;2022-12-20T14:03:22;33.03;;;3.70;;
4696;SDS011;2362;50.780;0.292;2022-12-20T14:05:57;37.15;;;4.75;;
4696;SDS011;2362;50.780;0.292;2022-12-20T14:08:26;33.35;;;4.13;;
4696;SDS011;2362;50.780;0.292;2022-12-20T14:11:08;27.85;;;3.55;;
4696;SDS011;2362;50.780;0.292;2022-12-20T14:13:35;37.17;;;4.80;;
4696;SDS011;2362;50.780;0.292;2022-12-20T14:16:17;31.27;;;4.28;;
4696;SDS011;2362;50.780;0.292;2022-12-20T14:19:04;25.60;;;3.85;;
4696;SDS011;2362;50.780;0.292;2022-12-20T14:21:38;31.85;;;4.28;;
4696;SDS011;2362;50.780;0.292;2022-12-20T14:24:08;37.20;;;3.72;;
4696;SDS011;2362;50.780;0.292;2022-12-20T14:26:41;37.90;;;4.85;;
4696;SDS011;2362;50.780;0.292;2022-12-20T14:29:10;50.97;;;6.35;;
4696;SDS011;2362;50.780;0.292;2022-12-20T14:31:41;47.95;;;6.32;;
4696;SDS011;2362;50.780;0.292;2022-12-20T14:36:41;34.53;;;5.03;;
4696;SDS011;2362;50.780;0.292;2022-12-20T14:39:23;47.13;;;5.03;;
4696;SDS011;2362;50.780;0.292;2022-12-20T14:44:31;39.78;;;4.78;;
4696;SDS011;2362;50.780;0.292;2022-12-20T14:49:28;41.92;;;5.25;;
4696;SDS011;2362;50.780;0.292;2022-12-20T14:54:39;47.28;;;6.03;;
4696;SDS011;2362;50.780;0.292;2022-12-20T14:57:21;51.92;;;5.97;;
4696;SDS011;2362;50.780;0.292;2022-12-20T15:00:01;39.63;;;5.55;;
4696;SDS011;2362;50.780;0.292;2022-12-20T15:11:11;28.08;;;4.35;;
4696;SDS011;2362;50.780;0.292;2022-12-20T15:13:46;44.90;;;4.45;;
4696;SDS011;2362;50.780;0.292;2022-12-20T15:16:23;43.55;;;5.25;;
4696;SDS011;2362;50.780;0.292;2022-12-20T15:19:00;56.47;;;5.93;;
4696;SDS011;2362;50.780;0.292;2022-12-20T15:21:34;42.00;;;6.22;;
4696;SDS011;2362;50.780;0.292;2022-12-20T15:24:03;53.70;;;5.80;;
4696;SDS011;2362;50.780;0.292;2022-12-20T15:26:33;51.13;;;6.93;;
4696;SDS011;2362;50.780;0.292;2022-12-20T15:29:00;51.88;;;5.55;;
4696;SDS011;2362;50.780;0.292;2022-12-20T15:31:26;41.70;;;5.53;;
4696;SDS011;2362;50.780;0.292;2022-12-20T15:33:53;38.38;;;4.95;;
4696;SDS011;2362;50.780;0.292;2022-12-20T15:36:26;54.55;;;6.00;;
4696;SDS011;2362;50.780;0.292;2022-12-20T15:38:56;40.75;;;5.78;;
4696;SDS011;2362;50.780;0.292;2022-12-20T15:41:26;48.47;;;5.30;;
4696;SDS011;2362;50.780;0.292;2022-12-20T15:43:58;43.47;;;4.50;;
4696;SDS011;2362;50.780;0.292;2022-12-20T15:46:27;54.67;;;6.10;;
4696;SDS011;2362;50.780;0.292;2022-12-20T15:48:53;34.80;;;5.07;;
4696;SDS011;2362;50.780;0.292;2022-12-20T15:51:24;62.63;;;6.15;;
4696;SDS011;2362;50.780;0.292;2022-12-20T15:53:53;47.58;;;5.57;;
4696;SDS011;2362;50.780;0.292;2022-12-20T15:56:21;43.70;;;5.55;;
4696;SDS011;2362;50.780;0.292;2022-12-20T15:58:48;41.00;;;3.83;;
4696;SDS011;2362;50.780;0.292;2022-12-20T16:01:19;58.65;;;6.63;;
4696;SDS011;2362;50.780;0.292;2022-12-20T16:03:47;40.90;;;4.65;;
4696;SDS011;2362;50.780;0.292;2022-12-20T16:06:14;48.60;;;5.43;;
4696;SDS011;2362;50.780;0.292;2022-12-20T16:08:40;55.13;;;5.45;;
4696;SDS011;2362;50.780;0.292;2022-12-20T16:11:06;43.83;;;4.35;;
4696;SDS011;2362;50.780;0.292;2022-12-20T16:13:45;43.53;;;5.32;;
4696;SDS011;2362;50.780;0.292;2022-12-20T16:16:14;39.58;;;6.88;;
4696;SDS011;2362;50.780;0.292;2022-12-20T16:18:45;63.45;;;7.53;;
4696;SDS011;2362;50.780;0.292;2022-12-20T16:21:18;59.03;;;7.53;;
4696;SDS011;2362;50.780;0.292;2022-12-20T16:23:46;67.97;;;9.17;;
4696;SDS011;2362;50.780;0.292;2022-12-20T16:26:15;66.78;;;7.55;;
4696;SDS011;2362;50.780;0.292;2022-12-20T16:28:44;63.97;;;8.05;;
4696;SDS011;2362;50.780;0.292;2022-12-20T16:31:16;46.60;;;7.05;;
4696;SDS011;2362;50.780;0.292;2022-12-20T16:33:48;44.80;;;6.53;;
4696;SDS011;2362;50.780;0.292;2022-12-20T16:36:14;42.25;;;6.53;;
4696;SDS011;2362;50.780;0.292;2022-12-20T16:38:40;41.58;;;7.93;;
4696;SDS011;2362;50.780;0.292;2022-12-20T16:41:28;43.28;;;6.05;;
4696;SDS011;2362;50.780;0.292;2022-12-20T16:43:55;41.42;;;6.43;;
4696;SDS011;2362;50.780;0.292;2022-12-20T16:46:23;53.83;;;7.60;;
4696;SDS011;2362;50.780;0.292;2022-12-20T16:48:51;53.55;;;8.20;;
4696;SDS011;2362;50.780;0.292;2022-12-20T16:53:51;61.83;;;7.40;;
4696;SDS011;2362;50.780;0.292;2022-12-20T16:56:18;43.08;;;7.55;;
4696;SDS011;2362;50.780;0.292;2022-12-20T16:58:44;49.65;;;7.53;;
4696;SDS011;2362;50.780;0.292;2022-12-20T17:01:16;42.97;;;8.02;;
4696;SDS011;2362;50.780;0.292;2022-12-20T17:03:44;45.40;;;8.27;;
4696;SDS011;2362;50.780;0.292;2022-12-20T17:06:11;50.80;;;8.40;;
4696;SDS011;2362;50.780;0.292;2022-12-20T17:08:37;43.85;;;7.88;;
4696;SDS011;2362;50.780;0.292;2022-12-20T17:13:39;48.25;;;9.32;;
4696;SDS011;2362;50.780;0.292;2022-12-20T17:16:05;71.30;;;10.88;;
4696;SDS011;2362;50.780;0.292;2022-12-20T17:18:31;52.55;;;7.15;;
4696;SDS011;2362;50.780;0.292;2022-12-20T17:20:57;51.50;;;8.25;;
4696;SDS011;2362;50.780;0.292;2022-12-20T17:23:25;58.22;;;8.23;;
4696;SDS011;2362;50.780;0.292;2022-12-20T17:25:51;49.78;;;8.38;;
4696;SDS011;2362;50.780;0.292;2022-12-20T17:28:16;67.30;;;7.57;;
4696;SDS011;2362;50.780;0.292;2022-12-20T17:30:42;56.17;;;8.70;;
4696;SDS011;2362;50.780;0.292;2022-12-20T17:33:11;53.35;;;8.15;;
4696;SDS011;2362;50.780;0.292;2022-12-20T17:35:39;46.88;;;7.35;;
4696;SDS011;2362;50.780;0.292;2022-12-20T17:38:04;42.97;;;8.23;;
4696;SDS011;2362;50.780;0.292;2022-12-20T17:40:31;35.97;;;7.57;;
4696;SDS011;2362;50.780;0.292;2022-12-20T17:42:57;53.70;;;8.13;;
4696;SDS011;2362;50.780;0.292;2022-12-20T17:45:30;35.85;;;8.25;;